sensor_id;sensor_type;location;lat;lon;timestamp;pressure;altitude;pressure_sealevel;temperature;humidity
70256;BME280;57669;52.624;-1.688;2023-04-23T00:01:25;99497.61;;;9.41;56.83
70256;BME280;57669;52.624;-1.688;2023-04-23T00:03:48;99502.19;;;8.03;58.47
70256;BME280;57669;52.624;-1.688;2023-04-23T00:06:13;99502.49;;;8.19;59.22
70256;BME280;57669;52.624;-1.688;2023-04-23T00:08:39;99504.00;;;7.59;60.61
70256;BME280;57669;52.624;-1.688;2023-04-23T00:11:05;99498.55;;;8.66;58.16
70256;BME280;57669;52.624;-1.688;2023-04-23T00:13:29;99495.44;;;9.16;55.94
70256;BME280;57669;52.624;-1.688;2023-04-23T00:15:55;99495.71;;;9.03;56.19
70256;BME280;57669;52.624;-1.688;2023-04-23T00:18:20;99493.76;;;9.91;54.78
70256;BME280;57669;52.624;-1.688;2023-04-23T00:20:45;99495.93;;;7.74;58.79
70256;BME280;57669;52.624;-1.688;2023-04-23T00:23:11;99488.16;;;9.64;55.96
70256;BME280;57669;52.624;-1.688;2023-04-23T00:25:36;99492.39;;;7.58;59.41
70256;BME280;57669;52.624;-1.688;2023-04-23T00:28:01;99480.37;;;10.08;54.04
70256;BME280;57669;52.624;-1.688;2023-04-23T00:30:26;99477.19;;;8.51;57.74
70256;BME280;57669;52.624;-1.688;2023-04-23T00:32:52;99475.39;;;9.07;56.20
70256;BME280;57669;52.624;-1.688;2023-04-23T00:35:18;99470.80;;;9.33;54.89
70256;BME280;57669;52.624;-1.688;2023-04-23T00:37:43;99476.02;;;10.72;52.45
70256;BME280;57669;52.624;-1.688;2023-04-23T00:40:09;99472.55;;;8.96;56.18
70256;BME280;57669;52.624;-1.688;2023-04-23T00:42:35;99470.42;;;9.67;53.25
70256;BME280;57669;52.624;-1.688;2023-04-23T00:45:00;99469.22;;;9.36;54.18
70256;BME280;57669;52.624;-1.688;2023-04-23T00:47:25;99466.06;;;9.43;54.59
70256;BME280;57669;52.624;-1.688;2023-04-23T00:49:50;99464.88;;;8.64;55.49
70256;BME280;57669;52.624;-1.688;2023-04-23T00:52:16;99464.44;;;8.28;57.88
70256;BME280;57669;52.624;-1.688;2023-04-23T00:54:41;99453.62;;;8.66;57.02
70256;BME280;57669;52.624;-1.688;2023-04-23T00:57:06;99462.01;;;7.68;59.49
70256;BME280;57669;52.624;-1.688;2023-04-23T00:59:31;99453.36;;;8.48;57.49
70256;BME280;57669;52.624;-1.688;2023-04-23T01:01:57;99453.42;;;8.74;57.88
70256;BME280;57669;52.624;-1.688;2023-04-23T01:04:23;99444.85;;;8.14;57.85
70256;BME280;57669;52.624;-1.688;2023-04-23T01:06:48;99441.84;;;9.32;55.89
70256;BME280;57669;52.624;-1.688;2023-04-23T01:09:13;99439.89;;;10.14;53.76
70256;BME280;57669;52.624;-1.688;2023-04-23T01:11:40;99432.81;;;10.48;52.33
70256;BME280;57669;52.624;-1.688;2023-04-23T01:14:04;99437.25;;;11.05;51.30
70256;BME280;57669;52.624;-1.688;2023-04-23T01:16:29;99431.39;;;11.48;49.87
70256;BME280;57669;52.624;-1.688;2023-04-23T01:18:55;99430.89;;;11.08;50.81
70256;BME280;57669;52.624;-1.688;2023-04-23T01:21:20;99430.29;;;10.12;52.61
70256;BME280;57669;52.624;-1.688;2023-04-23T01:23:45;99429.42;;;8.34;57.14
70256;BME280;57669;52.624;-1.688;2023-04-23T01:26:10;99426.14;;;9.76;53.51
70256;BME280;57669;52.624;-1.688;2023-04-23T01:28:36;99424.68;;;9.26;55.80
70256;BME280;57669;52.624;-1.688;2023-04-23T01:31:02;99422.01;;;9.65;53.93
70256;BME280;57669;52.624;-1.688;2023-04-23T01:33:27;99418.95;;;10.33;52.99
70256;BME280;57669;52.624;-1.688;2023-04-23T01:35:53;99417.58;;;10.14;53.25
70256;BME280;57669;52.624;-1.688;2023-04-23T01:38:19;99420.25;;;7.35;60.05
70256;BME280;57669;52.624;-1.688;2023-04-23T01:40:44;99415.58;;;8.31;57.92
70256;BME280;57669;52.624;-1.688;2023-04-23T01:43:10;99413.68;;;9.32;55.03
70256;BME280;57669;52.624;-1.688;2023-04-23T01:45:35;99411.77;;;9.67;54.48
70256;BME280;57669;52.624;-1.688;2023-04-23T01:48:02;99407.45;;;10.68;53.39
70256;BME280;57669;52.624;-1.688;2023-04-23T01:50:27;99409.22;;;9.43;55.38
70256;BME280;57669;52.624;-1.688;2023-04-23T01:52:52;99402.26;;;9.46;55.33
70256;BME280;57669;52.624;-1.688;2023-04-23T01:55:17;99400.32;;;9.82;55.61
70256;BME280;57669;52.624;-1.688;2023-04-23T01:57:43;99402.97;;;8.29;58.24
70256;BME280;57669;52.624;-1.688;2023-04-23T02:00:10;99408.44;;;7.52;59.25
70256;BME280;57669;52.624;-1.688;2023-04-23T02:02:34;99398.56;;;8.78;57.30
70256;BME280;57669;52.624;-1.688;2023-04-23T02:05:01;99401.55;;;8.98;57.12
70256;BME280;57669;52.624;-1.688;2023-04-23T02:07:25;99400.05;;;8.61;56.09
70256;BME280;57669;52.624;-1.688;2023-04-23T02:09:51;99399.31;;;9.64;53.89
70256;BME280;57669;52.624;-1.688;2023-04-23T02:12:17;99402.29;;;7.85;58.61
70256;BME280;57669;52.624;-1.688;2023-04-23T02:14:42;99399.99;;;8.04;58.64
70256;BME280;57669;52.624;-1.688;2023-04-23T02:17:07;99404.09;;;7.55;59.95
70256;BME280;57669;52.624;-1.688;2023-04-23T02:19:32;99397.14;;;8.36;57.81
70256;BME280;57669;52.624;-1.688;2023-04-23T02:21:58;99392.36;;;8.85;57.26
70256;BME280;57669;52.624;-1.688;2023-04-23T02:24:24;99396.59;;;9.14;56.26
70256;BME280;57669;52.624;-1.688;2023-04-23T02:26:49;99392.99;;;10.07;54.27
70256;BME280;57669;52.624;-1.688;2023-04-23T02:29:15;99391.86;;;10.25;54.00
70256;BME280;57669;52.624;-1.688;2023-04-23T02:31:40;99389.78;;;9.44;55.92
70256;BME280;57669;52.624;-1.688;2023-04-23T02:34:05;99387.75;;;8.73;57.68
70256;BME280;57669;52.624;-1.688;2023-04-23T02:36:30;99387.41;;;9.42;57.22
70256;BME280;57669;52.624;-1.688;2023-04-23T02:38:55;99381.63;;;8.51;58.34
70256;BME280;57669;52.624;-1.688;2023-04-23T02:41:21;99384.23;;;6.66;63.46
70256;BME280;57669;52.624;-1.688;2023-04-23T02:43:46;99382.85;;;7.16;63.07
70256;BME280;57669;52.624;-1.688;2023-04-23T02:46:11;99383.85;;;7.39;61.82
70256;BME280;57669;52.624;-1.688;2023-04-23T02:48:39;99379.29;;;9.12;57.42
70256;BME280;57669;52.624;-1.688;2023-04-23T02:51:03;99376.93;;;8.54;58.64
70256;BME280;57669;52.624;-1.688;2023-04-23T02:53:28;99375.50;;;8.33;59.13
70256;BME280;57669;52.624;-1.688;2023-04-23T02:55:53;99381.22;;;8.36;58.93
70256;BME280;57669;52.624;-1.688;2023-04-23T02:58:19;99377.50;;;9.12;57.41
70256;BME280;57669;52.624;-1.688;2023-04-23T03:00:44;99376.85;;;8.15;59.25
70256;BME280;57669;52.624;-1.688;2023-04-23T03:03:10;99382.23;;;8.85;57.72
70256;BME280;57669;52.624;-1.688;2023-04-23T03:05:35;99379.89;;;8.13;59.42
70256;BME280;57669;52.624;-1.688;2023-04-23T03:08:00;99377.24;;;8.84;57.74
70256;BME280;57669;52.624;-1.688;2023-04-23T03:10:26;99380.60;;;9.59;56.02
70256;BME280;57669;52.624;-1.688;2023-04-23T03:12:52;99380.78;;;8.98;56.03
70256;BME280;57669;52.624;-1.688;2023-04-23T03:15:17;99376.38;;;8.86;57.65
70256;BME280;57669;52.624;-1.688;2023-04-23T03:17:43;99377.08;;;8.29;58.58
70256;BME280;57669;52.624;-1.688;2023-04-23T03:20:09;99375.58;;;8.58;58.06
70256;BME280;57669;52.624;-1.688;2023-04-23T03:22:34;99372.81;;;8.01;59.15
70256;BME280;57669;52.624;-1.688;2023-04-23T03:24:59;99370.71;;;8.29;58.42
70256;BME280;57669;52.624;-1.688;2023-04-23T03:27:24;99371.81;;;8.14;58.64
70256;BME280;57669;52.624;-1.688;2023-04-23T03:29:49;99375.41;;;6.51;62.98
70256;BME280;57669;52.624;-1.688;2023-04-23T03:32:15;99374.93;;;6.77;63.49
70256;BME280;57669;52.624;-1.688;2023-04-23T03:34:40;99372.99;;;8.10;59.98
70256;BME280;57669;52.624;-1.688;2023-04-23T03:37:06;99371.81;;;7.68;60.71
70256;BME280;57669;52.624;-1.688;2023-04-23T03:39:31;99370.97;;;8.17;60.26
70256;BME280;57669;52.624;-1.688;2023-04-23T03:41:56;99377.70;;;7.86;60.43
70256;BME280;57669;52.624;-1.688;2023-04-23T03:44:24;99369.33;;;8.59;58.91
70256;BME280;57669;52.624;-1.688;2023-04-23T03:46:47;99370.66;;;7.81;59.72
70256;BME280;57669;52.624;-1.688;2023-04-23T03:49:13;99370.81;;;7.69;60.25
70256;BME280;57669;52.624;-1.688;2023-04-23T03:51:39;99369.08;;;9.02;58.26
70256;BME280;57669;52.624;-1.688;2023-04-23T03:54:05;99369.40;;;8.23;59.64
70256;BME280;57669;52.624;-1.688;2023-04-23T03:56:30;99365.18;;;8.08;59.97
70256;BME280;57669;52.624;-1.688;2023-04-23T03:58:55;99367.36;;;6.93;62.77
70256;BME280;57669;52.624;-1.688;2023-04-23T04:01:20;99359.06;;;8.81;58.91
70256;BME280;57669;52.624;-1.688;2023-04-23T04:03:45;99362.42;;;8.62;59.07
70256;BME280;57669;52.624;-1.688;2023-04-23T04:06:11;99365.67;;;7.05;62.60
70256;BME280;57669;52.624;-1.688;2023-04-23T04:08:36;99362.58;;;8.28;59.06
70256;BME280;57669;52.624;-1.688;2023-04-23T04:11:02;99366.07;;;7.03;61.98
70256;BME280;57669;52.624;-1.688;2023-04-23T04:13:27;99367.65;;;6.53;63.30
70256;BME280;57669;52.624;-1.688;2023-04-23T04:15:52;99367.51;;;7.45;61.69
70256;BME280;57669;52.624;-1.688;2023-04-23T04:18:18;99367.20;;;6.90;63.42
70256;BME280;57669;52.624;-1.688;2023-04-23T04:20:44;99369.31;;;7.59;61.87
70256;BME280;57669;52.624;-1.688;2023-04-23T04:23:09;99367.41;;;6.32;64.91
70256;BME280;57669;52.624;-1.688;2023-04-23T04:25:34;99366.02;;;7.34;62.25
70256;BME280;57669;52.624;-1.688;2023-04-23T04:27:59;99359.71;;;7.03;62.83
70256;BME280;57669;52.624;-1.688;2023-04-23T04:30:25;99359.53;;;7.88;61.87
70256;BME280;57669;52.624;-1.688;2023-04-23T04:32:50;99360.36;;;7.51;62.79
70256;BME280;57669;52.624;-1.688;2023-04-23T04:35:15;99359.58;;;6.81;64.44
70256;BME280;57669;52.624;-1.688;2023-04-23T04:37:41;99361.92;;;6.98;64.47
70256;BME280;57669;52.624;-1.688;2023-04-23T04:40:07;99353.52;;;6.06;66.33
70256;BME280;57669;52.624;-1.688;2023-04-23T04:42:32;99350.70;;;6.05;66.83
70256;BME280;57669;52.624;-1.688;2023-04-23T04:44:57;99354.50;;;6.77;65.64
70256;BME280;57669;52.624;-1.688;2023-04-23T04:47:22;99357.22;;;7.73;62.80
70256;BME280;57669;52.624;-1.688;2023-04-23T04:49:48;99360.97;;;7.37;63.10
70256;BME280;57669;52.624;-1.688;2023-04-23T04:52:13;99362.48;;;6.21;65.25
70256;BME280;57669;52.624;-1.688;2023-04-23T04:54:38;99360.75;;;7.43;62.93
70256;BME280;57669;52.624;-1.688;2023-04-23T04:57:03;99363.09;;;7.90;62.31
70256;BME280;57669;52.624;-1.688;2023-04-23T04:59:29;99365.51;;;7.61;62.21
70256;BME280;57669;52.624;-1.688;2023-04-23T05:01:55;99366.33;;;6.92;62.40
70256;BME280;57669;52.624;-1.688;2023-04-23T05:04:21;99371.33;;;7.79;61.38
70256;BME280;57669;52.624;-1.688;2023-04-23T05:06:46;99371.79;;;7.46;61.37
70256;BME280;57669;52.624;-1.688;2023-04-23T05:09:12;99376.16;;;7.61;62.76
70256;BME280;57669;52.624;-1.688;2023-04-23T05:11:37;99379.82;;;6.60;64.19
70256;BME280;57669;52.624;-1.688;2023-04-23T05:14:03;99378.55;;;6.34;66.18
70256;BME280;57669;52.624;-1.688;2023-04-23T05:16:28;99382.69;;;6.72;64.89
70256;BME280;57669;52.624;-1.688;2023-04-23T05:18:54;99386.57;;;7.17;64.10
70256;BME280;57669;52.624;-1.688;2023-04-23T05:21:19;99390.86;;;7.19;62.28
70256;BME280;57669;52.624;-1.688;2023-04-23T05:23:45;99390.27;;;8.03;60.12
70256;BME280;57669;52.624;-1.688;2023-04-23T05:26:11;99392.47;;;7.01;62.59
70256;BME280;57669;52.624;-1.688;2023-04-23T05:28:37;99386.10;;;7.00;62.59
70256;BME280;57669;52.624;-1.688;2023-04-23T05:31:02;99384.85;;;6.05;66.12
70256;BME280;57669;52.624;-1.688;2023-04-23T05:33:28;99383.79;;;6.38;65.81
70256;BME280;57669;52.624;-1.688;2023-04-23T05:35:53;99391.72;;;7.05;64.44
70256;BME280;57669;52.624;-1.688;2023-04-23T05:38:18;99391.75;;;7.87;61.94
70256;BME280;57669;52.624;-1.688;2023-04-23T05:40:44;99390.77;;;6.62;65.00
70256;BME280;57669;52.624;-1.688;2023-04-23T05:43:10;99394.14;;;7.61;62.70
70256;BME280;57669;52.624;-1.688;2023-04-23T05:45:34;99395.66;;;7.28;63.34
70256;BME280;57669;52.624;-1.688;2023-04-23T05:48:00;99394.39;;;7.64;63.26
70256;BME280;57669;52.624;-1.688;2023-04-23T05:50:26;99392.94;;;6.79;64.58
70256;BME280;57669;52.624;-1.688;2023-04-23T05:52:52;99389.89;;;6.01;66.98
70256;BME280;57669;52.624;-1.688;2023-04-23T05:55:18;99395.87;;;7.50;62.29
70256;BME280;57669;52.624;-1.688;2023-04-23T05:57:43;99393.66;;;6.84;62.86
70256;BME280;57669;52.624;-1.688;2023-04-23T06:00:09;99398.15;;;6.96;64.76
70256;BME280;57669;52.624;-1.688;2023-04-23T06:02:33;99397.58;;;7.26;63.51
70256;BME280;57669;52.624;-1.688;2023-04-23T06:04:59;99399.55;;;7.88;62.83
70256;BME280;57669;52.624;-1.688;2023-04-23T06:07:24;99395.00;;;8.44;60.25
70256;BME280;57669;52.624;-1.688;2023-04-23T06:09:50;99393.38;;;5.83;65.01
70256;BME280;57669;52.624;-1.688;2023-04-23T06:12:17;99398.53;;;6.71;62.53
70256;BME280;57669;52.624;-1.688;2023-04-23T06:14:41;99398.22;;;7.28;62.36
70256;BME280;57669;52.624;-1.688;2023-04-23T06:17:06;99398.50;;;6.04;66.89
70256;BME280;57669;52.624;-1.688;2023-04-23T06:19:31;99402.08;;;6.95;64.04
70256;BME280;57669;52.624;-1.688;2023-04-23T06:21:57;99402.06;;;6.75;64.15
70256;BME280;57669;52.624;-1.688;2023-04-23T06:24:22;99397.39;;;6.03;65.17
70256;BME280;57669;52.624;-1.688;2023-04-23T06:26:47;99393.17;;;6.42;65.47
70256;BME280;57669;52.624;-1.688;2023-04-23T06:29:13;99398.36;;;5.09;68.50
70256;BME280;57669;52.624;-1.688;2023-04-23T06:31:39;99394.49;;;5.81;67.19
70256;BME280;57669;52.624;-1.688;2023-04-23T06:34:04;99401.91;;;5.86;68.50
70256;BME280;57669;52.624;-1.688;2023-04-23T06:36:29;99400.94;;;5.67;68.33
70256;BME280;57669;52.624;-1.688;2023-04-23T06:38:55;99401.82;;;5.22;70.48
70256;BME280;57669;52.624;-1.688;2023-04-23T06:41:21;99401.58;;;6.88;66.16
70256;BME280;57669;52.624;-1.688;2023-04-23T06:43:47;99401.77;;;5.62;68.12
70256;BME280;57669;52.624;-1.688;2023-04-23T06:46:12;99400.78;;;6.39;66.70
70256;BME280;57669;52.624;-1.688;2023-04-23T06:48:38;99409.49;;;7.30;64.33
70256;BME280;57669;52.624;-1.688;2023-04-23T06:51:03;99410.60;;;6.95;64.85
70256;BME280;57669;52.624;-1.688;2023-04-23T06:53:28;99407.89;;;6.58;64.40
70256;BME280;57669;52.624;-1.688;2023-04-23T06:55:53;99406.24;;;7.02;64.13
70256;BME280;57669;52.624;-1.688;2023-04-23T06:58:19;99412.72;;;7.27;63.09
70256;BME280;57669;52.624;-1.688;2023-04-23T07:00:44;99415.11;;;7.42;62.07
70256;BME280;57669;52.624;-1.688;2023-04-23T07:03:10;99423.07;;;6.56;65.70
70256;BME280;57669;52.624;-1.688;2023-04-23T07:05:36;99425.48;;;7.20;62.21
70256;BME280;57669;52.624;-1.688;2023-04-23T07:08:01;99424.97;;;8.46;59.97
70256;BME280;57669;52.624;-1.688;2023-04-23T07:10:27;99427.85;;;9.79;56.04
70256;BME280;57669;52.624;-1.688;2023-04-23T07:12:53;99430.31;;;6.94;62.46
70256;BME280;57669;52.624;-1.688;2023-04-23T07:15:18;99421.58;;;9.01;58.08
70256;BME280;57669;52.624;-1.688;2023-04-23T07:17:44;99425.92;;;7.53;61.08
70256;BME280;57669;52.624;-1.688;2023-04-23T07:20:10;99429.92;;;7.42;62.01
70256;BME280;57669;52.624;-1.688;2023-04-23T07:22:35;99433.76;;;7.63;60.22
70256;BME280;57669;52.624;-1.688;2023-04-23T07:25:01;99438.26;;;8.02;61.04
70256;BME280;57669;52.624;-1.688;2023-04-23T07:27:25;99441.46;;;7.53;61.38
70256;BME280;57669;52.624;-1.688;2023-04-23T07:29:51;99444.65;;;7.86;61.34
70256;BME280;57669;52.624;-1.688;2023-04-23T07:32:17;99439.60;;;6.70;62.84
70256;BME280;57669;52.624;-1.688;2023-04-23T07:34:42;99439.82;;;7.51;61.19
70256;BME280;57669;52.624;-1.688;2023-04-23T07:37:08;99437.82;;;7.90;61.31
70256;BME280;57669;52.624;-1.688;2023-04-23T07:39:33;99434.94;;;7.29;63.26
70256;BME280;57669;52.624;-1.688;2023-04-23T07:41:58;99432.84;;;7.70;60.96
70256;BME280;57669;52.624;-1.688;2023-04-23T07:44:24;99428.60;;;9.00;59.11
70256;BME280;57669;52.624;-1.688;2023-04-23T07:46:49;99432.85;;;9.14;57.61
70256;BME280;57669;52.624;-1.688;2023-04-23T07:49:14;99443.64;;;7.38;60.54
70256;BME280;57669;52.624;-1.688;2023-04-23T07:51:40;99444.59;;;7.20;62.09
70256;BME280;57669;52.624;-1.688;2023-04-23T07:54:07;99444.92;;;7.43;63.07
70256;BME280;57669;52.624;-1.688;2023-04-23T07:56:31;99437.45;;;6.15;67.07
70256;BME280;57669;52.624;-1.688;2023-04-23T07:59:10;99438.79;;;6.53;66.00
70256;BME280;57669;52.624;-1.688;2023-04-23T08:01:22;99445.90;;;5.74;66.48
70256;BME280;57669;52.624;-1.688;2023-04-23T08:03:47;99447.88;;;7.26;62.43
70256;BME280;57669;52.624;-1.688;2023-04-23T08:06:13;99449.99;;;7.49;61.82
70256;BME280;57669;52.624;-1.688;2023-04-23T08:08:38;99448.33;;;8.26;59.95
70256;BME280;57669;52.624;-1.688;2023-04-23T08:11:04;99447.07;;;6.84;62.99
70256;BME280;57669;52.624;-1.688;2023-04-23T08:13:29;99443.71;;;7.11;62.00
70256;BME280;57669;52.624;-1.688;2023-04-23T08:15:55;99441.76;;;7.16;62.47
70256;BME280;57669;52.624;-1.688;2023-04-23T08:18:20;99440.16;;;6.33;64.85
70256;BME280;57669;52.624;-1.688;2023-04-23T08:20:45;99441.51;;;7.19;64.26
70256;BME280;57669;52.624;-1.688;2023-04-23T08:23:11;99449.23;;;7.88;60.63
70256;BME280;57669;52.624;-1.688;2023-04-23T08:25:36;99446.31;;;8.89;57.88
70256;BME280;57669;52.624;-1.688;2023-04-23T08:28:01;99458.03;;;7.77;60.33
70256;BME280;57669;52.624;-1.688;2023-04-23T08:30:26;99454.50;;;7.61;60.63
70256;BME280;57669;52.624;-1.688;2023-04-23T08:32:53;99455.13;;;7.43;62.14
70256;BME280;57669;52.624;-1.688;2023-04-23T08:35:17;99456.40;;;7.68;60.13
70256;BME280;57669;52.624;-1.688;2023-04-23T08:37:42;99459.36;;;7.12;62.28
70256;BME280;57669;52.624;-1.688;2023-04-23T08:40:09;99460.25;;;7.31;63.13
70256;BME280;57669;52.624;-1.688;2023-04-23T08:42:37;99458.00;;;6.22;64.38
70256;BME280;57669;52.624;-1.688;2023-04-23T08:44:59;99463.98;;;7.19;62.77
70256;BME280;57669;52.624;-1.688;2023-04-23T08:47:27;99465.59;;;7.36;62.19
70256;BME280;57669;52.624;-1.688;2023-04-23T08:49:53;99466.86;;;6.97;62.84
70256;BME280;57669;52.624;-1.688;2023-04-23T08:52:16;99464.53;;;8.50;59.98
70256;BME280;57669;52.624;-1.688;2023-04-23T08:54:45;99463.09;;;9.05;57.05
70256;BME280;57669;52.624;-1.688;2023-04-23T08:57:07;99469.49;;;8.24;58.32
70256;BME280;57669;52.624;-1.688;2023-04-23T08:59:31;99469.52;;;8.00;59.93
70256;BME280;57669;52.624;-1.688;2023-04-23T09:01:56;99459.42;;;9.58;57.06
70256;BME280;57669;52.624;-1.688;2023-04-23T09:04:21;99461.43;;;8.90;57.76
70256;BME280;57669;52.624;-1.688;2023-04-23T09:06:46;99467.60;;;7.77;59.24
70256;BME280;57669;52.624;-1.688;2023-04-23T09:09:15;99466.13;;;8.97;56.77
70256;BME280;57669;52.624;-1.688;2023-04-23T09:11:37;99474.79;;;8.33;58.45
70256;BME280;57669;52.624;-1.688;2023-04-23T09:14:03;99471.98;;;9.22;56.45
70256;BME280;57669;52.624;-1.688;2023-04-23T09:16:28;99474.20;;;8.76;58.95
70256;BME280;57669;52.624;-1.688;2023-04-23T09:18:53;99474.81;;;7.08;63.36
70256;BME280;57669;52.624;-1.688;2023-04-23T09:21:19;99483.01;;;7.54;61.99
70256;BME280;57669;52.624;-1.688;2023-04-23T09:23:44;99479.56;;;8.81;60.04
70256;BME280;57669;52.624;-1.688;2023-04-23T09:26:18;99483.99;;;7.36;62.02
70256;BME280;57669;52.624;-1.688;2023-04-23T09:28:36;99481.37;;;8.86;59.00
70256;BME280;57669;52.624;-1.688;2023-04-23T09:31:01;99479.86;;;9.71;57.63
70256;BME280;57669;52.624;-1.688;2023-04-23T09:33:27;99485.61;;;8.01;59.31
70256;BME280;57669;52.624;-1.688;2023-04-23T09:35:51;99482.92;;;10.47;55.42
70256;BME280;57669;52.624;-1.688;2023-04-23T09:38:18;99490.22;;;7.28;61.29
70256;BME280;57669;52.624;-1.688;2023-04-23T09:40:43;99482.71;;;9.37;57.60
70256;BME280;57669;52.624;-1.688;2023-04-23T09:43:10;99484.05;;;9.61;57.33
70256;BME280;57669;52.624;-1.688;2023-04-23T09:45:34;99487.75;;;8.01;60.43
70256;BME280;57669;52.624;-1.688;2023-04-23T09:47:59;99488.71;;;7.94;60.78
70256;BME280;57669;52.624;-1.688;2023-04-23T09:50:30;99487.76;;;8.90;59.90
70256;BME280;57669;52.624;-1.688;2023-04-23T09:52:53;99484.14;;;10.58;56.25
70256;BME280;57669;52.624;-1.688;2023-04-23T09:55:15;99486.08;;;9.63;57.14
70256;BME280;57669;52.624;-1.688;2023-04-23T09:57:40;99489.44;;;8.98;57.60
70256;BME280;57669;52.624;-1.688;2023-04-23T10:00:13;99484.65;;;9.93;57.21
70256;BME280;57669;52.624;-1.688;2023-04-23T10:02:32;99489.59;;;8.16;60.19
70256;BME280;57669;52.624;-1.688;2023-04-23T10:04:57;99494.98;;;7.94;61.48
70256;BME280;57669;52.624;-1.688;2023-04-23T10:07:23;99489.44;;;9.85;57.75
70256;BME280;57669;52.624;-1.688;2023-04-23T10:09:48;99487.54;;;9.02;59.70
70256;BME280;57669;52.624;-1.688;2023-04-23T10:12:14;99489.37;;;8.29;62.11
70256;BME280;57669;52.624;-1.688;2023-04-23T10:14:40;99490.73;;;8.28;61.11
70256;BME280;57669;52.624;-1.688;2023-04-23T10:17:04;99493.98;;;7.89;60.32
70256;BME280;57669;52.624;-1.688;2023-04-23T10:19:31;99490.77;;;9.07;58.13
70256;BME280;57669;52.624;-1.688;2023-04-23T10:21:56;99491.24;;;9.07;60.15
70256;BME280;57669;52.624;-1.688;2023-04-23T10:24:23;99495.43;;;9.11;59.33
70256;BME280;57669;52.624;-1.688;2023-04-23T10:26:47;99492.01;;;8.95;60.83
70256;BME280;57669;52.624;-1.688;2023-04-23T10:29:13;99490.92;;;8.70;59.66
70256;BME280;57669;52.624;-1.688;2023-04-23T10:31:38;99485.85;;;8.43;61.17
70256;BME280;57669;52.624;-1.688;2023-04-23T10:34:04;99482.98;;;9.45;60.07
70256;BME280;57669;52.624;-1.688;2023-04-23T10:36:29;99483.76;;;9.27;58.62
70256;BME280;57669;52.624;-1.688;2023-04-23T10:38:54;99489.25;;;9.31;57.18
70256;BME280;57669;52.624;-1.688;2023-04-23T10:41:21;99490.04;;;9.25;57.18
70256;BME280;57669;52.624;-1.688;2023-04-23T10:43:45;99491.75;;;9.87;57.34
70256;BME280;57669;52.624;-1.688;2023-04-23T10:51:02;99495.76;;;8.10;60.44
70256;BME280;57669;52.624;-1.688;2023-04-23T10:53:30;99494.81;;;8.09;60.92
70256;BME280;57669;52.624;-1.688;2023-04-23T10:58:17;99494.27;;;9.15;59.52
70256;BME280;57669;52.624;-1.688;2023-04-23T11:00:44;99495.08;;;8.96;58.56
70256;BME280;57669;52.624;-1.688;2023-04-23T11:05:35;99491.66;;;8.93;59.69
70256;BME280;57669;52.624;-1.688;2023-04-23T11:08:02;99491.47;;;9.61;57.89
70256;BME280;57669;52.624;-1.688;2023-04-23T11:10:25;99491.62;;;9.20;58.16
70256;BME280;57669;52.624;-1.688;2023-04-23T11:12:50;99491.80;;;8.76;60.81
70256;BME280;57669;52.624;-1.688;2023-04-23T11:15:18;99494.56;;;9.75;58.16
70256;BME280;57669;52.624;-1.688;2023-04-23T11:20:09;99499.78;;;9.41;58.24
70256;BME280;57669;52.624;-1.688;2023-04-23T11:22:33;99502.61;;;9.76;57.76
70256;BME280;57669;52.624;-1.688;2023-04-23T11:25:01;99504.48;;;8.50;61.60
70256;BME280;57669;52.624;-1.688;2023-04-23T11:27:24;99508.54;;;8.11;61.82
70256;BME280;57669;52.624;-1.688;2023-04-23T11:29:51;99508.98;;;9.64;58.25
70256;BME280;57669;52.624;-1.688;2023-04-23T11:32:16;99515.86;;;7.27;64.83
70256;BME280;57669;52.624;-1.688;2023-04-23T11:34:43;99516.81;;;6.55;65.54
70256;BME280;57669;52.624;-1.688;2023-04-23T11:37:09;99522.02;;;6.82;65.81
70256;BME280;57669;52.624;-1.688;2023-04-23T11:39:32;99518.65;;;6.96;65.88
70256;BME280;57669;52.624;-1.688;2023-04-23T11:41:57;99521.98;;;7.17;66.44
70256;BME280;57669;52.624;-1.688;2023-04-23T11:44:23;99525.69;;;8.21;65.01
70256;BME280;57669;52.624;-1.688;2023-04-23T11:46:48;99526.63;;;7.46;64.35
70256;BME280;57669;52.624;-1.688;2023-04-23T11:49:14;99528.23;;;7.79;63.21
70256;BME280;57669;52.624;-1.688;2023-04-23T11:51:41;99529.47;;;6.85;65.95
70256;BME280;57669;52.624;-1.688;2023-04-23T11:54:04;99537.18;;;8.73;60.70
70256;BME280;57669;52.624;-1.688;2023-04-23T11:56:29;99532.93;;;9.68;57.92
70256;BME280;57669;52.624;-1.688;2023-04-23T11:58:58;99533.61;;;7.83;60.20
70256;BME280;57669;52.624;-1.688;2023-04-23T12:01:19;99528.76;;;9.43;57.98
70256;BME280;57669;52.624;-1.688;2023-04-23T12:03:48;99531.90;;;8.84;59.49
70256;BME280;57669;52.624;-1.688;2023-04-23T12:06:10;99528.28;;;9.58;58.45
70256;BME280;57669;52.624;-1.688;2023-04-23T12:08:35;99526.53;;;8.81;59.02
70256;BME280;57669;52.624;-1.688;2023-04-23T12:11:02;99525.44;;;9.66;59.04
70256;BME280;57669;52.624;-1.688;2023-04-23T12:13:27;99532.69;;;8.38;61.90
70256;BME280;57669;52.624;-1.688;2023-04-23T12:15:53;99529.02;;;10.37;57.58
70256;BME280;57669;52.624;-1.688;2023-04-23T12:18:18;99525.44;;;9.53;59.06
70256;BME280;57669;52.624;-1.688;2023-04-23T12:20:42;99526.82;;;9.17;58.58
70256;BME280;57669;52.624;-1.688;2023-04-23T12:23:08;99531.25;;;8.90;58.96
70256;BME280;57669;52.624;-1.688;2023-04-23T12:25:34;99528.02;;;8.96;58.84
70256;BME280;57669;52.624;-1.688;2023-04-23T12:27:59;99528.11;;;10.00;58.54
70256;BME280;57669;52.624;-1.688;2023-04-23T12:30:27;99530.43;;;9.22;59.49
70256;BME280;57669;52.624;-1.688;2023-04-23T12:32:50;99536.37;;;8.07;62.03
70256;BME280;57669;52.624;-1.688;2023-04-23T12:35:16;99537.60;;;7.98;62.30
70256;BME280;57669;52.624;-1.688;2023-04-23T12:37:41;99535.76;;;9.14;61.16
70256;BME280;57669;52.624;-1.688;2023-04-23T12:40:08;99542.88;;;7.75;63.75
70256;BME280;57669;52.624;-1.688;2023-04-23T12:42:33;99547.72;;;7.71;63.68
70256;BME280;57669;52.624;-1.688;2023-04-23T12:45:05;99547.50;;;8.20;62.44
70256;BME280;57669;52.624;-1.688;2023-04-23T12:47:24;99542.71;;;7.66;64.28
70256;BME280;57669;52.624;-1.688;2023-04-23T12:49:49;99543.10;;;7.77;63.15
70256;BME280;57669;52.624;-1.688;2023-04-23T12:52:15;99544.36;;;7.75;63.04
70256;BME280;57669;52.624;-1.688;2023-04-23T12:54:39;99540.41;;;8.56;62.05
70256;BME280;57669;52.624;-1.688;2023-04-23T12:57:06;99539.16;;;7.70;63.87
